createdAt,value
2019-01-20T00:03:22.249Z,13.57
2019-01-20T00:06:02.681Z,12.37
2019-01-20T00:08:44.129Z,9.43
2019-01-20T00:11:24.723Z,17.13
2019-01-20T00:14:06.254Z,13.30
2019-01-20T00:16:47.048Z,13.73
2019-01-20T00:19:28.006Z,11.53
2019-01-20T00:22:16.244Z,13.53
2019-01-20T00:24:56.997Z,11.27
2019-01-20T00:27:37.555Z,10.90
2019-01-20T00:30:18.381Z,16.53
2019-01-20T00:33:02.078Z,14.80
2019-01-20T00:35:44.514Z,14.30
2019-01-20T00:38:24.949Z,11.80
2019-01-20T00:41:24.997Z,12.83
2019-01-20T00:44:06.349Z,14.07
2019-01-20T00:46:46.917Z,13.50
2019-01-20T00:49:27.947Z,15.07
2019-01-20T00:52:10.123Z,12.43
2019-01-20T00:54:52.361Z,14.00
2019-01-20T00:57:33.286Z,12.27
2019-01-20T01:00:15.779Z,14.33
2019-01-20T01:02:56.660Z,11.43
2019-01-20T01:05:37.205Z,11.90
2019-01-20T01:08:20.480Z,12.70
2019-01-20T01:11:01.826Z,9.47
2019-01-20T01:13:42.987Z,14.13
2019-01-20T01:16:23.794Z,13.30
2019-01-20T01:19:04.438Z,11.50
2019-01-20T01:21:45.668Z,12.83
2019-01-20T01:24:26.454Z,14.13
2019-01-20T01:27:10.467Z,14.53
2019-01-20T01:29:51.658Z,14.10
2019-01-20T01:32:32.534Z,12.37
2019-01-20T01:35:13.903Z,14.03
2019-01-20T01:37:54.480Z,12.63
2019-01-20T01:40:35.301Z,12.77
2019-01-20T01:43:16.647Z,12.57
2019-01-20T01:45:57.802Z,11.27
2019-01-20T01:48:38.361Z,13.93
2019-01-20T01:51:19.572Z,13.97
2019-01-20T01:53:59.975Z,12.00
2019-01-20T01:56:41.104Z,11.77
2019-01-20T01:59:22.363Z,12.10
2019-01-20T02:02:03.722Z,12.17
2019-01-20T02:04:45.035Z,13.60
2019-01-20T02:07:25.661Z,16.53
2019-01-20T02:10:06.770Z,15.57
2019-01-20T02:12:46.342Z,12.43
2019-01-20T02:15:34.577Z,13.03
2019-01-20T02:18:15.271Z,15.30
2019-01-20T02:20:56.841Z,13.13
2019-01-20T02:23:37.950Z,13.13
2019-01-20T02:26:21.427Z,12.33
2019-01-20T02:29:02.845Z,13.27
2019-01-20T02:31:43.693Z,17.23
2019-01-20T02:34:25.188Z,14.27
2019-01-20T02:37:06.651Z,12.23
2019-01-20T02:39:47.760Z,11.17
2019-01-20T02:42:16.984Z,12.97
2019-01-20T02:45:05.695Z,10.80
2019-01-20T02:47:53.977Z,9.17
2019-01-20T02:50:34.739Z,10.63
2019-01-20T02:53:15.356Z,11.83
2019-01-20T02:55:56.808Z,12.20
2019-01-20T02:58:37.872Z,10.80
2019-01-20T03:01:18.523Z,11.03
2019-01-20T03:03:59.334Z,13.13
2019-01-20T03:06:39.901Z,12.23
2019-01-20T03:09:20.606Z,8.67
2019-01-20T03:12:03.570Z,11.97
2019-01-20T03:14:44.346Z,9.90
2019-01-20T03:17:24.961Z,15.07
2019-01-20T03:20:05.870Z,11.93
2019-01-20T03:22:47.125Z,10.37
2019-01-20T03:25:29.519Z,9.83
2019-01-20T03:28:10.636Z,11.63
2019-01-20T03:30:51.303Z,11.83
2019-01-20T03:36:44.830Z,11.43
2019-01-20T03:39:25.477Z,10.83
2019-01-20T03:42:11.896Z,13.07
2019-01-20T03:44:48.775Z,10.87
2019-01-20T03:47:30.350Z,11.20
2019-01-20T03:50:10.282Z,11.23
2019-01-20T03:53:10.594Z,14.80
2019-01-20T03:55:49.154Z,11.87
2019-01-20T03:58:28.203Z,11.20
2019-01-20T04:00:58.000Z,12.37
2019-01-20T04:03:46.348Z,10.83
2019-01-20T04:06:17.700Z,13.80
2019-01-20T04:09:07.301Z,12.03
2019-01-20T04:11:55.956Z,9.83
2019-01-20T04:14:36.752Z,12.90
2019-01-20T04:17:18.005Z,10.90
2019-01-20T04:20:00.609Z,11.40
2019-01-20T04:22:39.951Z,11.40
2019-01-20T04:25:20.783Z,15.43
2019-01-20T04:28:01.780Z,12.53
2019-01-20T04:30:42.584Z,13.60
2019-01-20T04:33:23.235Z,12.57
2019-01-20T04:36:04.641Z,13.37
2019-01-20T04:38:45.287Z,12.40
2019-01-20T04:41:26.263Z,11.40
2019-01-20T04:44:09.876Z,11.80
2019-01-20T04:46:51.314Z,12.47
2019-01-20T04:49:32.731Z,14.00
2019-01-20T04:52:13.422Z,13.73
2019-01-20T04:54:53.901Z,9.67
2019-01-20T04:57:35.284Z,9.67
2019-01-20T05:00:16.339Z,12.53
2019-01-20T05:02:57.679Z,12.47
2019-01-20T05:05:38.367Z,12.33
2019-01-20T05:08:19.502Z,10.87
2019-01-20T05:11:00.207Z,13.83
2019-01-20T05:13:40.800Z,11.40
2019-01-20T05:16:21.363Z,12.30
2019-01-20T05:19:01.932Z,9.20
2019-01-20T05:21:42.693Z,11.63
2019-01-20T05:24:23.964Z,10.27
2019-01-20T05:27:04.475Z,10.27
2019-01-20T05:29:34.784Z,10.83
2019-01-20T05:32:23.034Z,12.13
2019-01-20T05:35:11.752Z,9.70
2019-01-20T05:37:52.894Z,8.53
2019-01-20T05:40:34.242Z,9.97
2019-01-20T05:43:15.154Z,12.10
2019-01-20T05:45:55.821Z,13.90
2019-01-20T05:48:37.104Z,12.90
2019-01-20T05:51:17.606Z,11.57
2019-01-20T05:53:59.190Z,11.23
2019-01-20T05:56:40.450Z,10.43
2019-01-20T05:59:21.623Z,11.83
2019-01-20T06:02:02.166Z,14.50
2019-01-20T06:04:43.368Z,9.57
2019-01-20T06:07:24.031Z,12.80
2019-01-20T06:10:04.996Z,8.77
2019-01-20T06:15:58.472Z,10.63
2019-01-20T06:18:39.855Z,9.47
2019-01-20T06:21:21.094Z,10.60
2019-01-20T06:24:02.476Z,7.77
2019-01-20T06:26:43.389Z,9.03
2019-01-20T06:29:24.258Z,9.93
2019-01-20T06:32:05.176Z,9.70
2019-01-20T06:34:45.797Z,7.73
2019-01-20T06:40:32.183Z,10.50
2019-01-20T06:43:12.779Z,9.13
2019-01-20T06:45:53.378Z,9.03
2019-01-20T06:48:34.761Z,6.97
2019-01-20T06:51:16.117Z,12.10
2019-01-20T06:53:58.433Z,13.27
2019-01-20T06:56:39.373Z,13.67
2019-01-20T06:59:20.712Z,9.53
2019-01-20T07:08:01.651Z,8.90
2019-01-20T07:10:42.945Z,8.43
2019-01-20T07:13:24.319Z,8.87
2019-01-20T07:16:05.041Z,6.67
2019-01-20T07:18:45.719Z,7.43
2019-01-20T07:21:26.491Z,10.30
2019-01-20T07:24:07.229Z,10.80
2019-01-20T07:26:48.227Z,8.90
2019-01-20T07:29:29.002Z,8.77
2019-01-20T07:32:10.212Z,6.73
2019-01-20T07:34:50.714Z,11.43
2019-01-20T07:37:31.358Z,9.33
2019-01-20T07:40:12.276Z,7.60
2019-01-20T07:42:53.061Z,7.30
2019-01-20T07:45:33.559Z,7.70
2019-01-20T07:48:14.340Z,7.93
2019-01-20T07:50:55.746Z,9.73
2019-01-20T07:53:36.934Z,9.63
2019-01-20T07:56:17.657Z,12.70
2019-01-20T07:58:58.446Z,10.07
2019-01-20T08:01:39.143Z,12.90
2019-01-20T08:04:20.042Z,9.43
2019-01-20T08:07:00.920Z,10.50
2019-01-20T08:09:41.789Z,10.77
2019-01-20T08:12:23.668Z,10.33
2019-01-20T08:15:05.218Z,8.70
2019-01-20T08:17:46.072Z,11.43
2019-01-20T08:20:26.751Z,8.87
2019-01-20T08:23:07.496Z,10.53
2019-01-20T08:25:48.415Z,11.27
2019-01-20T08:28:28.912Z,10.60
2019-01-20T08:31:05.532Z,13.97
2019-01-20T08:33:34.884Z,8.87
2019-01-20T08:36:23.244Z,8.63
2019-01-20T08:39:11.826Z,8.93
2019-01-20T08:41:41.098Z,8.63
2019-01-20T08:44:30.973Z,9.17
2019-01-20T08:47:38.769Z,9.37
2019-01-20T08:50:19.897Z,9.33
2019-01-20T08:53:00.791Z,10.80
2019-01-20T08:55:41.329Z,9.40
2019-01-20T08:58:22.093Z,14.30
2019-01-20T09:01:02.668Z,9.37
2019-01-20T09:03:43.869Z,9.47
2019-01-20T09:06:25.243Z,10.87
2019-01-20T09:09:05.929Z,12.57
2019-01-20T09:11:47.365Z,9.00
2019-01-20T09:14:27.773Z,11.50
2019-01-20T09:17:09.162Z,10.43
2019-01-20T09:19:50.415Z,10.30
2019-01-20T09:22:31.149Z,13.30
2019-01-20T09:25:13.393Z,10.50
2019-01-20T09:27:54.218Z,12.23
2019-01-20T09:30:37.068Z,11.90
2019-01-20T09:33:24.586Z,11.80
2019-01-20T09:36:00.197Z,13.23
2019-01-20T09:38:43.469Z,10.50
2019-01-20T09:41:24.063Z,10.47
2019-01-20T09:44:05.557Z,9.27
2019-01-20T09:46:46.450Z,13.17
2019-01-20T09:49:27.430Z,13.40
2019-01-20T09:52:08.353Z,14.33
2019-01-20T09:54:48.987Z,15.43
2019-01-20T09:57:29.672Z,12.20
2019-01-20T10:00:11.258Z,10.87
2019-01-20T10:02:52.622Z,9.93
2019-01-20T10:05:33.307Z,11.83
2019-01-20T10:08:12.865Z,12.53
2019-01-20T10:14:02.988Z,8.17
2019-01-20T10:16:47.970Z,13.37
2019-01-20T10:19:29.075Z,10.87
2019-01-20T10:22:08.452Z,11.77
2019-01-20T10:24:49.342Z,13.50
2019-01-20T10:27:30.714Z,11.07
2019-01-20T10:30:11.566Z,13.53
2019-01-20T10:32:52.975Z,12.90
2019-01-20T10:35:39.757Z,12.33
2019-01-20T10:38:21.082Z,16.70
2019-01-20T10:41:01.749Z,18.10
2019-01-20T10:43:42.409Z,16.20
2019-01-20T10:46:23.039Z,14.20
2019-01-20T10:49:05.344Z,16.53
2019-01-20T10:51:45.963Z,15.17
2019-01-20T10:54:26.904Z,15.47
2019-01-20T10:57:07.758Z,17.90
2019-01-20T10:59:48.957Z,16.30
2019-01-20T11:02:29.860Z,11.93
2019-01-20T11:05:10.570Z,14.50
2019-01-20T11:07:51.232Z,14.00
2019-01-20T11:10:33.426Z,13.83
2019-01-20T11:13:14.243Z,15.17
2019-01-20T11:15:55.742Z,16.67
2019-01-20T11:18:36.355Z,14.20
2019-01-20T11:21:18.831Z,15.83
2019-01-20T11:24:00.274Z,18.00
2019-01-20T11:26:41.571Z,15.57
2019-01-20T11:29:23.160Z,15.77
2019-01-20T11:32:03.801Z,16.33
2019-01-20T11:34:44.567Z,13.70
2019-01-20T11:37:25.174Z,12.17
2019-01-20T11:43:11.436Z,14.07
2019-01-20T11:45:51.881Z,13.50
2019-01-20T11:48:32.561Z,15.40
2019-01-20T11:51:13.309Z,13.77
2019-01-20T11:53:54.667Z,18.50
2019-01-20T11:56:36.550Z,13.67
2019-01-20T11:59:17.769Z,15.07
2019-01-20T12:01:58.407Z,15.50
2019-01-20T12:04:39.028Z,16.40
2019-01-20T12:10:33.096Z,14.70
2019-01-20T12:13:16.207Z,15.13
2019-01-20T12:15:57.660Z,11.93
2019-01-20T12:18:38.314Z,16.87
2019-01-20T12:21:19.317Z,14.67
2019-01-20T12:24:00.063Z,13.27
2019-01-20T12:26:40.261Z,13.40
2019-01-20T12:29:21.412Z,15.80
2019-01-20T12:32:02.104Z,14.60
2019-01-20T12:34:42.685Z,15.00
2019-01-20T12:37:22.024Z,14.83
2019-01-20T12:40:03.208Z,11.83
2019-01-20T12:42:44.614Z,14.27
2019-01-20T12:45:25.574Z,12.30
2019-01-20T12:48:06.889Z,9.03
2019-01-20T12:50:48.444Z,11.53
2019-01-20T12:53:29.791Z,13.83
2019-01-20T12:56:11.135Z,11.23
2019-01-20T12:58:51.950Z,20.67
2019-01-20T13:01:27.466Z,14.47
2019-01-20T13:04:11.731Z,13.30
2019-01-20T13:06:41.170Z,14.57
2019-01-20T13:09:10.672Z,17.03
2019-01-20T13:11:40.187Z,18.80
2019-01-20T13:14:28.403Z,14.57
2019-01-20T13:17:09.494Z,15.27
2019-01-20T13:19:50.255Z,21.93
2019-01-20T13:22:30.985Z,19.33
2019-01-20T13:25:11.632Z,16.70
2019-01-20T13:30:51.399Z,16.37
2019-01-20T13:33:32.995Z,16.83
2019-01-20T13:36:14.269Z,19.57
2019-01-20T13:38:56.139Z,12.77
2019-01-20T13:41:37.095Z,18.60
2019-01-20T13:44:18.631Z,12.03
2019-01-20T13:46:59.267Z,16.40
2019-01-20T13:49:40.046Z,13.33
2019-01-20T13:52:20.882Z,13.47
2019-01-20T13:55:02.440Z,17.67
2019-01-20T13:57:43.392Z,15.13
2019-01-20T14:00:23.932Z,13.93
2019-01-20T14:03:05.214Z,17.00
2019-01-20T14:05:45.973Z,16.83
2019-01-20T14:08:26.829Z,17.27
2019-01-20T14:11:08.259Z,16.53
2019-01-20T14:16:54.807Z,17.90
2019-01-20T14:19:35.367Z,14.03
2019-01-20T14:25:21.664Z,16.77
2019-01-20T14:28:02.498Z,16.93
2019-01-20T14:30:43.116Z,15.37
2019-01-20T14:33:23.818Z,16.97
2019-01-20T14:36:05.379Z,17.10
2019-01-20T14:39:04.044Z,19.30
2019-01-20T14:41:34.775Z,50.13
2019-01-20T14:44:16.296Z,18.10
2019-01-20T14:46:56.863Z,16.00
2019-01-20T14:49:39.424Z,18.13
2019-01-20T14:52:20.677Z,21.30
2019-01-20T14:55:01.407Z,22.13
2019-01-20T14:57:41.896Z,21.47
2019-01-20T15:00:22.880Z,21.70
2019-01-20T15:03:04.307Z,25.13
2019-01-20T15:05:45.686Z,18.03
2019-01-20T15:08:26.354Z,29.57
2019-01-20T15:11:08.680Z,23.07
2019-01-20T15:13:52.711Z,20.53
2019-01-20T15:16:33.670Z,26.83
2019-01-20T15:19:14.438Z,15.43
2019-01-20T15:21:55.326Z,20.87
2019-01-20T15:24:38.010Z,25.57
2019-01-20T15:27:18.993Z,18.03
2019-01-20T15:29:59.697Z,16.70
2019-01-20T15:32:41.030Z,19.77
2019-01-20T15:35:22.197Z,22.80
2019-01-20T15:38:03.157Z,17.60
2019-01-20T15:40:43.853Z,15.03
2019-01-20T15:43:23.367Z,17.60
2019-01-20T15:46:11.697Z,16.43
2019-01-20T15:48:53.121Z,14.77
2019-01-20T15:51:34.072Z,14.50
2019-01-20T15:54:14.695Z,17.83
2019-01-20T15:56:56.127Z,16.87
2019-01-20T15:59:37.526Z,19.10
2019-01-20T16:02:18.369Z,17.40
2019-01-20T16:04:59.999Z,17.20
2019-01-20T16:07:40.726Z,15.77
2019-01-20T16:10:22.086Z,15.17
2019-01-20T16:13:02.846Z,14.57
2019-01-20T16:15:44.229Z,13.03
2019-01-20T16:18:25.671Z,16.93
2019-01-20T16:21:06.214Z,13.77
2019-01-20T16:23:46.914Z,12.80
2019-01-20T16:26:27.069Z,13.87
2019-01-20T16:29:08.186Z,17.00
2019-01-20T16:31:49.413Z,15.83
2019-01-20T16:34:30.135Z,21.40
2019-01-20T16:37:10.696Z,21.30
2019-01-20T16:39:51.529Z,21.90
2019-01-20T16:42:21.045Z,22.00
2019-01-20T16:45:02.213Z,23.07
2019-01-20T16:47:43.326Z,19.47
2019-01-20T16:50:23.285Z,29.23
2019-01-20T16:53:11.578Z,21.43
2019-01-20T16:55:52.661Z,19.63
2019-01-20T16:58:33.271Z,21.00
2019-01-20T17:01:14.359Z,22.00
2019-01-20T17:03:56.086Z,23.87
2019-01-20T17:06:37.363Z,24.37
2019-01-20T17:09:18.101Z,16.07
2019-01-20T17:11:59.175Z,17.13
2019-01-20T17:14:39.916Z,15.87
2019-01-20T17:17:21.097Z,20.70
2019-01-20T17:20:01.676Z,19.67
2019-01-20T17:22:42.191Z,23.63
2019-01-20T17:25:22.723Z,22.33
2019-01-20T17:31:16.322Z,20.47
2019-01-20T17:33:57.750Z,17.43
2019-01-20T17:36:39.054Z,23.53
2019-01-20T17:42:02.475Z,20.00
2019-01-20T17:44:31.740Z,19.73
2019-01-20T17:47:02.434Z,22.57
2019-01-20T17:49:31.989Z,20.57
2019-01-20T17:52:01.547Z,21.23
2019-01-20T17:54:49.887Z,23.93
2019-01-20T17:57:38.280Z,20.23
2019-01-20T18:00:19.260Z,22.23
2019-01-20T18:02:59.865Z,21.43
2019-01-20T18:05:40.836Z,21.20
2019-01-20T18:08:22.371Z,20.30
2019-01-20T18:11:03.319Z,24.40
2019-01-20T18:13:44.051Z,22.03
2019-01-20T18:16:23.550Z,26.53
2019-01-20T18:19:11.874Z,26.70
2019-01-20T18:21:53.084Z,21.00
2019-01-20T18:24:34.154Z,20.27
2019-01-20T18:30:32.091Z,23.20
2019-01-20T18:33:13.223Z,20.57
2019-01-20T18:35:52.579Z,25.33
2019-01-20T18:38:40.917Z,22.73
2019-01-20T18:41:21.935Z,27.67
2019-01-20T18:44:02.754Z,22.27
2019-01-20T18:46:43.758Z,26.93
2019-01-20T18:49:25.015Z,22.43
2019-01-20T18:52:06.278Z,27.03
2019-01-20T18:54:47.393Z,24.83
2019-01-20T18:57:27.930Z,31.37
2019-01-20T19:00:09.267Z,34.67
2019-01-20T19:02:50.829Z,32.47
2019-01-20T19:05:31.292Z,27.50
2019-01-20T19:08:12.707Z,32.10
2019-01-20T19:10:54.091Z,27.63
2019-01-20T19:16:40.779Z,32.33
2019-01-20T19:19:21.751Z,24.07
2019-01-20T19:22:02.514Z,26.07
2019-01-20T19:24:43.783Z,41.07
2019-01-20T19:27:24.424Z,41.97
2019-01-20T19:30:05.137Z,32.37
2019-01-20T19:36:05.605Z,22.27
2019-01-20T19:38:44.986Z,28.00
2019-01-20T19:41:26.018Z,26.20
2019-01-20T19:44:07.217Z,29.13
2019-01-20T19:46:47.876Z,34.87
2019-01-20T19:49:28.448Z,37.87
2019-01-20T19:52:09.919Z,32.83
2019-01-20T19:54:50.457Z,34.40
2019-01-20T19:57:31.378Z,31.90
2019-01-20T20:00:11.864Z,33.83
2019-01-20T20:02:52.532Z,30.97
2019-01-20T20:05:33.156Z,32.00
2019-01-20T20:08:14.409Z,29.73
2019-01-20T20:10:54.970Z,30.67
2019-01-20T20:13:36.004Z,25.57
2019-01-20T20:16:23.301Z,24.53
2019-01-20T20:18:59.595Z,29.47
2019-01-20T20:21:40.662Z,30.23
2019-01-20T20:24:25.473Z,26.10
2019-01-20T20:27:12.032Z,30.67
2019-01-20T20:29:53.454Z,39.17
2019-01-20T20:32:34.327Z,40.77
2019-01-20T20:35:14.973Z,40.27
2019-01-20T20:37:55.616Z,42.40
2019-01-20T20:40:36.078Z,38.27
2019-01-20T20:43:16.978Z,36.87
2019-01-20T20:45:58.550Z,36.93
2019-01-20T20:48:39.095Z,41.13
2019-01-20T20:51:20.579Z,43.73
2019-01-20T20:54:01.876Z,31.30
2019-01-20T20:56:43.033Z,33.40
2019-01-20T20:59:23.537Z,28.77
2019-01-20T21:02:04.807Z,22.97
2019-01-20T21:04:45.870Z,24.70
2019-01-20T21:07:26.609Z,25.37
2019-01-20T21:10:07.403Z,24.20
2019-01-20T21:15:30.445Z,28.43
2019-01-20T21:18:11.235Z,23.23
2019-01-20T21:20:52.824Z,24.23
2019-01-20T21:23:34.752Z,21.57
2019-01-20T21:26:15.744Z,23.23
2019-01-20T21:32:09.724Z,25.03
2019-01-20T21:34:50.813Z,24.10
2019-01-20T21:37:31.497Z,26.20
2019-01-20T21:40:12.730Z,29.13
2019-01-20T21:46:02.016Z,27.87
2019-01-20T21:48:43.400Z,23.73
2019-01-20T21:51:24.048Z,23.47
2019-01-20T21:54:05.341Z,24.23
2019-01-20T21:56:46.479Z,25.63
2019-01-20T21:59:27.209Z,29.90
2019-01-20T22:02:06.464Z,22.33
2019-01-20T22:04:54.721Z,24.73
2019-01-20T22:07:35.730Z,25.03
2019-01-20T22:10:06.832Z,22.70
2019-01-20T22:12:55.268Z,28.30
2019-01-20T22:16:01.368Z,27.83
2019-01-20T22:18:42.486Z,22.60
2019-01-20T22:21:22.945Z,24.70
2019-01-20T22:24:03.577Z,25.60
2019-01-20T22:26:44.931Z,25.10
2019-01-20T22:29:25.461Z,25.63
2019-01-20T22:35:23.036Z,29.97
2019-01-20T22:41:10.330Z,26.70
2019-01-20T22:53:18.338Z,23.17
2019-01-20T22:55:58.971Z,21.10
2019-01-20T22:58:40.529Z,21.87
2019-01-20T23:01:40.641Z,25.10
2019-01-20T23:07:26.367Z,21.40
2019-01-20T23:10:07.825Z,23.40
2019-01-20T23:12:49.135Z,24.13
2019-01-20T23:15:30.418Z,24.60
2019-01-20T23:18:11.536Z,22.80
2019-01-20T23:20:52.307Z,24.07
2019-01-20T23:23:33.073Z,24.70
2019-01-20T23:26:13.899Z,23.00
2019-01-20T23:28:55.107Z,27.63
2019-01-20T23:31:36.093Z,27.30
2019-01-20T23:34:17.345Z,22.23
2019-01-20T23:36:57.982Z,25.80
2019-01-20T23:39:39.174Z,25.23
2019-01-20T23:42:20.199Z,25.63
2019-01-20T23:45:01.412Z,24.50
2019-01-20T23:50:24.397Z,27.03
2019-01-20T23:53:05.346Z,26.00
2019-01-20T23:55:46.213Z,23.13
2019-01-20T23:58:26.752Z,27.73
